createdAt,value
2019-06-20T00:00:27.709Z,17.00
2019-06-20T00:02:55.634Z,17.00
2019-06-20T00:05:23.681Z,16.90
2019-06-20T00:07:51.896Z,16.80
2019-06-20T00:10:19.881Z,16.70
2019-06-20T00:12:59.810Z,16.60
2019-06-20T00:15:17.400Z,16.60
2019-06-20T00:17:45.472Z,16.50
2019-06-20T00:20:14.308Z,16.50
2019-06-20T00:22:42.262Z,16.40
2019-06-20T00:25:10.867Z,16.30
2019-06-20T00:27:38.897Z,16.20
2019-06-20T00:30:08.255Z,16.20
2019-06-20T00:32:36.119Z,16.00
2019-06-20T00:35:05.429Z,15.90
2019-06-20T00:37:33.413Z,15.90
2019-06-20T00:40:01.421Z,15.80
2019-06-20T00:42:29.863Z,15.70
2019-06-20T00:45:02.071Z,15.70
2019-06-20T00:47:30.154Z,15.60
2019-06-20T00:49:58.162Z,15.60
2019-06-20T00:52:26.186Z,15.60
2019-06-20T00:54:54.095Z,15.60
2019-06-20T00:57:22.026Z,15.60
2019-06-20T00:59:50.014Z,15.50
2019-06-20T01:02:17.963Z,15.50
2019-06-20T01:04:46.573Z,15.50
2019-06-20T01:07:14.567Z,15.40
2019-06-20T01:09:42.439Z,15.40
2019-06-20T01:12:10.379Z,15.40
2019-06-20T01:14:38.330Z,15.40
2019-06-20T01:17:06.177Z,15.40
2019-06-20T01:19:34.080Z,15.40
2019-06-20T01:22:03.936Z,15.50
2019-06-20T01:24:32.036Z,15.50
2019-06-20T01:27:00.055Z,15.40
2019-06-20T01:29:28.113Z,15.40
2019-06-20T01:31:56.103Z,15.40
2019-06-20T01:34:24.032Z,15.30
2019-06-20T01:36:52.124Z,15.30
2019-06-20T01:39:20.107Z,15.30
2019-06-20T01:41:48.043Z,15.20
2019-06-20T01:44:16.073Z,15.20
2019-06-20T01:46:43.966Z,15.10
2019-06-20T01:49:12.016Z,15.10
2019-06-20T01:51:39.943Z,15.10
2019-06-20T01:54:07.797Z,15.10
2019-06-20T01:56:35.875Z,15.10
2019-06-20T01:59:04.421Z,15.00
2019-06-20T02:01:32.461Z,15.00
2019-06-20T02:04:00.420Z,15.00
2019-06-20T02:06:28.393Z,14.90
2019-06-20T02:08:56.399Z,14.80
2019-06-20T02:11:24.425Z,14.80
2019-06-20T02:14:06.391Z,14.80
2019-06-20T02:16:22.043Z,14.70
2019-06-20T02:18:50.145Z,14.80
2019-06-20T02:21:18.191Z,14.80
2019-06-20T02:23:46.286Z,14.80
2019-06-20T02:26:14.269Z,14.80
2019-06-20T02:28:42.399Z,14.80
2019-06-20T02:31:10.339Z,14.80
2019-06-20T02:33:38.234Z,14.80
2019-06-20T02:36:06.111Z,14.70
2019-06-20T02:38:34.144Z,14.70
2019-06-20T02:41:02.060Z,14.60
2019-06-20T02:43:30.555Z,14.60
2019-06-20T02:45:58.549Z,14.60
2019-06-20T02:48:26.463Z,14.70
2019-06-20T02:50:54.399Z,14.70
2019-06-20T02:53:22.359Z,14.70
2019-06-20T02:55:50.766Z,14.70
2019-06-20T02:58:18.671Z,14.70
2019-06-20T03:00:56.728Z,14.70
2019-06-20T03:03:25.325Z,14.70
2019-06-20T03:05:53.553Z,14.70
2019-06-20T03:08:21.615Z,14.70
2019-06-20T03:10:49.665Z,14.80
2019-06-20T03:13:17.656Z,14.70
2019-06-20T03:15:45.518Z,14.70
2019-06-20T03:18:13.465Z,14.70
2019-06-20T03:20:41.257Z,14.80
2019-06-20T03:23:09.234Z,14.90
2019-06-20T03:25:38.420Z,14.90
2019-06-20T03:28:06.512Z,15.00
2019-06-20T03:30:38.153Z,15.10
2019-06-20T03:33:06.268Z,15.10
2019-06-20T03:35:34.291Z,15.20
2019-06-20T03:38:02.363Z,15.30
2019-06-20T03:40:30.332Z,15.40
2019-06-20T03:42:58.409Z,15.50
2019-06-20T03:45:26.229Z,15.70
2019-06-20T03:47:54.412Z,15.80
2019-06-20T03:50:22.576Z,16.00
2019-06-20T03:53:02.737Z,16.10
2019-06-20T03:55:32.345Z,16.30
2019-06-20T03:58:00.705Z,16.50
2019-06-20T04:00:37.481Z,16.60
2019-06-20T04:03:05.732Z,16.60
2019-06-20T04:05:33.992Z,16.70
2019-06-20T04:08:02.306Z,16.80
2019-06-20T04:10:30.386Z,17.00
2019-06-20T04:12:58.615Z,17.30
2019-06-20T04:15:26.802Z,17.60
2019-06-20T04:17:54.944Z,18.00
2019-06-20T04:20:23.024Z,18.30
2019-06-20T04:22:51.066Z,18.50
2019-06-20T04:25:19.047Z,18.60
2019-06-20T04:27:46.959Z,18.70
2019-06-20T04:30:14.771Z,18.80
2019-06-20T04:32:44.288Z,18.80
2019-06-20T04:35:12.442Z,18.80
2019-06-20T04:37:40.733Z,18.80
2019-06-20T04:40:09.113Z,18.80
2019-06-20T04:42:37.099Z,18.70
2019-06-20T16:10:46.253Z,26.60
2019-06-20T16:13:14.801Z,26.20
2019-06-20T16:15:43.364Z,26.00
2019-06-20T16:18:11.977Z,25.80
2019-06-20T16:20:40.516Z,25.70
2019-06-20T16:23:09.153Z,25.60
2019-06-20T16:25:47.435Z,25.60
2019-06-20T16:28:15.997Z,25.50
2019-06-20T16:30:44.556Z,25.40
2019-06-20T16:33:24.665Z,25.30
2019-06-20T16:35:44.641Z,25.30
2019-06-20T16:38:13.213Z,25.30
2019-06-20T16:40:46.743Z,25.20
2019-06-20T16:43:16.023Z,25.10
2019-06-20T16:45:43.899Z,24.90
2019-06-20T16:48:12.619Z,24.80
2019-06-20T16:50:40.453Z,24.70
2019-06-20T16:53:08.225Z,24.60
2019-06-20T16:55:36.810Z,24.50
2019-06-20T16:58:05.974Z,24.50
2019-06-20T17:00:34.772Z,24.50
2019-06-20T17:06:44.715Z,24.50
2019-06-20T17:09:13.318Z,24.50
2019-06-20T17:11:41.858Z,24.50
2019-06-20T17:14:10.318Z,24.40
2019-06-20T17:16:38.835Z,24.40
2019-06-20T17:19:07.402Z,24.40
2019-06-20T17:21:35.991Z,24.30
2019-06-20T17:24:04.930Z,24.20
2019-06-20T17:26:33.613Z,24.10
2019-06-20T17:29:02.176Z,24.10
2019-06-20T17:31:30.643Z,24.00
2019-06-20T17:33:59.268Z,23.90
2019-06-20T17:36:27.745Z,23.80
2019-06-20T17:38:56.278Z,23.70
2019-06-20T17:41:24.792Z,23.70
2019-06-20T17:43:53.340Z,23.60
2019-06-20T17:46:21.810Z,23.60
2019-06-20T17:48:50.467Z,23.60
2019-06-20T17:51:19.048Z,23.50
2019-06-20T17:53:49.625Z,23.50
2019-06-20T17:56:18.126Z,23.50
2019-06-20T17:58:46.615Z,23.40
2019-06-20T18:01:15.204Z,23.40
2019-06-20T18:03:43.782Z,23.30
2019-06-20T18:06:12.410Z,23.30
2019-06-20T18:08:40.980Z,23.20
2019-06-20T18:11:09.493Z,23.20
2019-06-20T18:13:39.511Z,23.10
2019-06-20T18:16:23.752Z,23.00
2019-06-20T18:18:38.475Z,23.00
2019-06-20T18:21:07.058Z,22.90
2019-06-20T18:23:35.530Z,22.90
2019-06-20T18:26:04.156Z,22.90
2019-06-20T18:28:32.654Z,22.80
2019-06-20T18:31:01.327Z,22.70
2019-06-20T18:33:29.875Z,22.60
2019-06-20T18:35:58.341Z,22.50
2019-06-20T18:38:26.911Z,22.40
2019-06-20T18:40:55.455Z,22.30
2019-06-20T18:43:24.125Z,22.10
2019-06-20T18:45:52.662Z,22.00
2019-06-20T18:48:21.224Z,21.90
2019-06-20T18:50:49.798Z,21.70
2019-06-20T18:53:18.406Z,21.70
2019-06-20T18:55:49.417Z,21.50
2019-06-20T18:58:21.390Z,21.40
2019-06-20T19:00:50.353Z,21.00
2019-06-20T19:03:21.298Z,20.70
2019-06-20T19:05:49.261Z,20.40
2019-06-20T19:08:19.329Z,20.40
2019-06-20T19:10:48.766Z,20.20
2019-06-20T19:13:17.368Z,19.90
2019-06-20T19:15:46.129Z,19.80
2019-06-20T19:18:14.767Z,19.70
2019-06-20T19:20:43.423Z,19.60
2019-06-20T19:23:12.360Z,19.40
2019-06-20T19:25:41.116Z,19.30
2019-06-20T19:28:09.671Z,19.20
2019-06-20T19:30:44.090Z,19.10
2019-06-20T19:33:13.206Z,19.00
2019-06-20T19:35:41.858Z,18.90
2019-06-20T19:38:10.507Z,18.90
2019-06-20T19:40:49.773Z,18.80
2019-06-20T19:43:18.369Z,18.70
2019-06-20T19:45:47.019Z,18.70
2019-06-20T19:48:15.845Z,18.70
2019-06-20T19:50:44.898Z,18.60
2019-06-20T19:53:13.646Z,18.50
2019-06-20T19:55:42.848Z,18.50
2019-06-20T19:58:11.615Z,18.40
2019-06-20T20:00:40.156Z,18.30
2019-06-20T20:03:08.827Z,18.30
2019-06-20T20:05:37.416Z,18.20
2019-06-20T20:08:06.417Z,18.20
2019-06-20T20:10:50.681Z,18.20
2019-06-20T20:13:19.445Z,18.20
2019-06-20T20:15:48.634Z,18.10
2019-06-20T20:18:20.444Z,18.10
2019-06-20T20:20:49.226Z,18.10
2019-06-20T20:23:17.893Z,18.10
2019-06-20T20:25:46.958Z,18.10
2019-06-20T20:28:15.484Z,18.00
2019-06-20T20:30:44.146Z,18.00
2019-06-20T20:33:12.772Z,18.00
2019-06-20T20:35:41.409Z,18.00
2019-06-20T20:38:10.099Z,18.00
2019-06-20T20:40:39.369Z,17.90
2019-06-20T20:43:08.316Z,17.90
2019-06-20T20:45:36.996Z,17.90
2019-06-20T20:48:06.227Z,17.90
2019-06-20T20:50:34.976Z,17.90
2019-06-20T20:53:04.898Z,17.90
2019-06-20T20:55:37.583Z,17.90
2019-06-20T20:58:06.216Z,17.90
2019-06-20T21:00:38.649Z,17.90
2019-06-20T21:03:08.128Z,17.90
2019-06-20T21:05:50.694Z,18.00
2019-06-20T21:08:08.261Z,18.00
2019-06-20T21:10:39.754Z,18.00
2019-06-20T21:13:08.623Z,18.00
2019-06-20T21:15:37.341Z,18.00
2019-06-20T21:18:07.398Z,17.90
2019-06-20T21:20:36.285Z,17.80
2019-06-20T21:23:05.025Z,17.70
2019-06-20T21:25:33.642Z,17.70
2019-06-20T21:28:03.012Z,17.60
2019-06-20T21:30:31.697Z,17.50
2019-06-20T21:32:59.466Z,17.40
2019-06-20T21:35:28.348Z,17.30
2019-06-20T21:37:56.999Z,17.20
2019-06-20T21:40:25.121Z,17.20
2019-06-20T21:42:53.172Z,17.10
2019-06-20T21:45:22.639Z,17.10
2019-06-20T21:47:50.809Z,17.00
2019-06-20T21:50:18.757Z,17.00
2019-06-20T21:52:46.716Z,16.90
2019-06-20T21:55:16.554Z,16.90
2019-06-20T21:57:45.913Z,16.90
2019-06-20T22:00:18.136Z,16.80
2019-06-20T22:02:47.326Z,16.80
2019-06-20T22:05:15.686Z,16.80
2019-06-20T22:07:43.653Z,16.80
2019-06-20T22:10:11.623Z,16.70
2019-06-20T22:12:39.358Z,16.70
2019-06-20T22:15:10.367Z,16.70
2019-06-20T22:17:39.052Z,16.60
2019-06-20T22:20:09.182Z,16.60
2019-06-20T22:22:37.807Z,16.50
2019-06-20T22:25:09.438Z,16.50
2019-06-20T22:27:38.009Z,16.50
2019-06-20T22:30:09.830Z,16.50
2019-06-20T22:32:39.145Z,16.50
2019-06-20T22:35:07.174Z,16.50
2019-06-20T22:37:34.906Z,16.40
2019-06-20T22:40:03.998Z,16.40
2019-06-20T22:42:32.936Z,16.40
2019-06-20T22:45:00.658Z,16.40
2019-06-20T22:47:28.372Z,16.40
2019-06-20T22:49:56.155Z,16.30
2019-06-20T22:52:25.183Z,16.30
2019-06-20T22:54:53.046Z,16.20
2019-06-20T22:57:20.898Z,16.20
2019-06-20T22:59:48.654Z,16.20
2019-06-20T23:02:17.105Z,16.20
2019-06-20T23:04:44.858Z,16.20
2019-06-20T23:07:13.074Z,16.00
2019-06-20T23:09:40.960Z,15.90
2019-06-20T23:12:08.685Z,15.90
2019-06-20T23:14:36.439Z,15.80
2019-06-20T23:17:05.113Z,15.70
2019-06-20T23:19:32.941Z,15.70
2019-06-20T23:22:00.760Z,15.70
2019-06-20T23:24:28.521Z,15.60
2019-06-20T23:26:56.991Z,15.50
2019-06-20T23:29:24.702Z,15.50
2019-06-20T23:31:53.220Z,15.40
2019-06-20T23:34:21.286Z,15.40
2019-06-20T23:36:49.046Z,15.40
2019-06-20T23:39:17.694Z,15.40
2019-06-20T23:41:45.995Z,15.40
2019-06-20T23:44:13.762Z,15.40
2019-06-20T23:46:42.356Z,15.40
2019-06-20T23:49:10.110Z,15.50
2019-06-20T23:51:39.527Z,15.50
2019-06-20T23:54:07.288Z,15.50
2019-06-20T23:56:35.001Z,15.50
2019-06-20T23:59:02.721Z,15.50
